createdAt,value
2019-04-06T00:05:55.518Z,6.57
2019-04-06T00:12:00.136Z,6.72
2019-04-06T00:18:04.731Z,6.73
2019-04-06T00:24:09.329Z,6.90
2019-04-06T00:30:15.110Z,6.96
2019-04-06T00:36:19.849Z,6.99
2019-04-06T00:42:24.433Z,7.10
2019-04-06T00:48:29.043Z,7.10
2019-04-06T00:54:33.654Z,7.22
2019-04-06T01:00:38.421Z,7.36
2019-04-06T01:06:43.083Z,7.28
2019-04-06T01:12:47.832Z,7.30
2019-04-06T01:18:52.516Z,7.22
2019-04-06T01:24:57.129Z,7.16
2019-04-06T01:31:01.733Z,7.20
2019-04-06T01:37:06.631Z,6.98
2019-04-06T01:43:11.283Z,6.63
2019-04-06T01:49:15.869Z,6.59
2019-04-06T01:55:20.467Z,6.36
2019-04-06T02:01:42.809Z,6.34
2019-04-06T02:07:48.175Z,6.21
2019-04-06T02:13:52.811Z,6.40
2019-04-06T02:19:57.421Z,6.36
2019-04-06T02:26:02.031Z,6.26
2019-04-06T02:32:06.378Z,6.33
2019-04-06T02:38:19.492Z,6.28
2019-04-06T02:44:24.151Z,6.13
2019-04-06T02:50:28.815Z,5.91
2019-04-06T02:56:45.040Z,5.92
2019-04-06T03:02:39.848Z,5.56
2019-04-06T03:08:44.434Z,5.49
2019-04-06T03:14:49.028Z,5.17
2019-04-06T03:20:53.767Z,5.15
2019-04-06T03:27:02.653Z,5.29
2019-04-06T03:33:06.281Z,4.99
2019-04-06T03:39:10.950Z,5.06
2019-04-06T03:45:16.016Z,5.09
2019-04-06T03:51:20.716Z,5.04
2019-04-06T03:57:25.354Z,5.10
2019-04-06T04:03:29.905Z,5.32
2019-04-06T04:09:34.453Z,5.41
2019-04-06T04:15:39.296Z,5.61
2019-04-06T04:21:43.995Z,5.67
2019-04-06T04:27:48.581Z,5.61
2019-04-06T04:33:53.249Z,5.61
2019-04-06T04:39:57.898Z,5.45
2019-04-06T04:46:02.441Z,5.27
2019-04-06T04:52:07.060Z,5.37
2019-04-06T04:58:11.631Z,5.32
2019-04-06T05:04:16.270Z,5.38
2019-04-06T05:10:20.832Z,5.53
2019-04-06T05:16:25.614Z,5.57
2019-04-06T05:22:30.165Z,5.77
2019-04-06T05:28:34.903Z,6.16
2019-04-06T05:34:39.441Z,6.37
2019-04-06T05:40:43.994Z,6.59
2019-04-06T05:46:48.626Z,6.66
2019-04-06T05:52:53.244Z,6.94
2019-04-06T05:58:57.797Z,7.03
2019-04-06T06:05:02.381Z,7.01
2019-04-06T06:11:07.013Z,7.05
2019-04-06T06:17:11.587Z,7.41
2019-04-06T06:23:16.113Z,7.54
2019-04-06T06:29:20.733Z,7.82
2019-04-06T06:35:25.371Z,7.97
2019-04-06T06:41:29.995Z,8.12
2019-04-06T06:47:34.531Z,8.27
2019-04-06T06:53:39.271Z,8.16
2019-04-06T06:59:43.833Z,8.35
2019-04-06T07:05:48.668Z,8.32
2019-04-06T07:11:53.355Z,8.55
2019-04-06T07:17:57.907Z,8.69
2019-04-06T07:24:02.453Z,8.95
2019-04-06T07:30:08.540Z,8.94
2019-04-06T07:36:13.157Z,9.13
2019-04-06T07:42:17.710Z,9.42
2019-04-06T07:48:22.342Z,9.48
2019-04-06T07:54:27.021Z,9.34
2019-04-06T08:00:31.652Z,9.75
2019-04-06T08:06:36.197Z,9.84
2019-04-06T08:12:40.766Z,10.25
2019-04-06T08:18:45.315Z,10.17
2019-04-06T08:24:49.861Z,10.39
2019-04-06T08:30:54.569Z,10.85
2019-04-06T08:36:59.181Z,10.97
2019-04-06T08:43:03.735Z,11.58
2019-04-06T08:49:08.380Z,11.50
2019-04-06T08:55:13.335Z,11.84
2019-04-06T09:01:17.982Z,11.25
2019-04-06T09:07:22.547Z,11.63
2019-04-06T09:13:28.613Z,11.40
2019-04-06T09:19:33.187Z,11.49
2019-04-06T09:25:37.743Z,11.60
2019-04-06T09:31:42.310Z,11.51
2019-04-06T09:37:46.898Z,11.70
2019-04-06T09:43:51.473Z,12.68
2019-04-06T09:50:09.472Z,13.09
2019-04-06T09:56:13.812Z,13.54
2019-04-06T10:02:38.216Z,15.32
2019-04-06T10:08:56.695Z,18.19
2019-04-06T10:15:17.755Z,20.33
2019-04-06T10:21:37.314Z,22.44
2019-04-06T10:27:49.580Z,24.11
2019-04-06T10:33:58.599Z,25.90
2019-04-06T10:40:05.232Z,27.66
2019-04-06T10:46:11.605Z,28.79
2019-04-06T10:52:24.082Z,29.24
2019-04-06T10:58:30.301Z,29.77
2019-04-06T11:04:45.027Z,30.75
2019-04-06T11:11:07.094Z,31.26
2019-04-06T11:17:14.246Z,31.35
2019-04-06T11:23:23.225Z,31.52
2019-04-06T11:29:35.629Z,31.39
2019-04-06T11:35:45.915Z,31.97
2019-04-06T11:42:06.923Z,31.67
2019-04-06T11:48:23.621Z,31.41
2019-04-06T11:54:45.839Z,31.49
2019-04-06T12:00:52.946Z,31.81
2019-04-06T12:07:14.271Z,32.60
2019-04-06T12:13:23.013Z,32.79
2019-04-06T12:19:45.422Z,34.05
2019-04-06T12:26:00.779Z,35.01
2019-04-06T12:32:12.755Z,34.04
2019-04-06T12:38:24.515Z,33.16
2019-04-06T12:44:30.740Z,33.88
2019-04-06T12:50:53.174Z,33.62
2019-04-06T12:57:09.440Z,33.47
2019-04-06T13:03:14.016Z,34.08
2019-04-06T13:09:36.700Z,34.29
2019-04-06T13:15:51.887Z,33.98
2019-04-06T13:21:58.186Z,32.02
2019-04-06T13:28:04.402Z,32.23
2019-04-06T13:34:26.411Z,33.73
2019-04-06T13:40:51.341Z,33.80
2019-04-06T13:46:56.921Z,33.32
2019-04-06T13:53:01.812Z,31.66
2019-04-06T13:59:11.645Z,31.63
2019-04-06T14:05:23.817Z,30.66
2019-04-06T14:11:36.035Z,30.68
2019-04-06T14:17:43.478Z,29.71
2019-04-06T14:24:05.268Z,29.97
2019-04-06T14:30:25.958Z,30.77
2019-04-06T14:36:50.065Z,31.61
2019-04-06T14:43:05.021Z,32.77
2019-04-06T14:49:32.004Z,33.62
2019-04-06T14:55:37.249Z,33.66
2019-04-06T15:01:57.724Z,33.16
2019-04-06T15:08:01.675Z,31.13
2019-04-06T15:14:19.974Z,32.05
2019-04-06T15:20:42.008Z,33.41
2019-04-06T15:26:48.493Z,32.99
2019-04-06T15:33:03.678Z,33.96
2019-04-06T15:39:09.048Z,33.52
2019-04-06T15:45:19.377Z,33.73
2019-04-06T15:51:23.734Z,34.22
2019-04-06T15:57:29.913Z,33.78
2019-04-06T16:03:52.308Z,33.49
2019-04-06T16:10:04.650Z,34.36
2019-04-06T16:16:11.636Z,33.93
2019-04-06T16:22:34.546Z,32.84
2019-04-06T16:28:41.446Z,32.70
2019-04-06T16:34:50.303Z,32.23
2019-04-06T16:41:11.953Z,32.01
2019-04-06T16:47:20.581Z,31.06
2019-04-06T16:53:32.859Z,29.92
2019-04-06T16:59:54.303Z,28.61
2019-04-06T17:06:01.498Z,27.64
2019-04-06T17:12:24.742Z,26.13
2019-04-06T17:18:29.150Z,25.36
2019-04-06T17:24:38.757Z,24.80
2019-04-06T17:30:56.709Z,24.39
2019-04-06T17:37:05.754Z,23.85
2019-04-06T17:43:16.104Z,22.99
2019-04-06T17:49:24.190Z,21.80
2019-04-06T17:55:48.756Z,20.82
2019-04-06T18:02:04.278Z,19.34
2019-04-06T18:08:26.476Z,18.29
2019-04-06T18:14:31.439Z,17.51
2019-04-06T18:20:36.105Z,16.74
2019-04-06T18:26:40.662Z,16.01
2019-04-06T18:32:58.353Z,15.72
2019-04-06T18:38:57.704Z,15.26
2019-04-06T18:45:02.335Z,15.02
2019-04-06T18:51:06.924Z,14.79
2019-04-06T18:57:11.638Z,14.72
2019-04-06T19:03:16.855Z,14.50
2019-04-06T19:09:24.014Z,14.33
2019-04-06T19:15:28.472Z,14.06
2019-04-06T19:21:33.226Z,13.99
2019-04-06T19:27:37.931Z,13.90
2019-04-06T19:33:43.154Z,13.84
2019-04-06T19:39:47.978Z,13.58
2019-04-06T19:45:52.940Z,13.30
2019-04-06T19:51:57.845Z,13.37
2019-04-06T19:58:02.514Z,13.25
2019-04-06T20:04:07.089Z,13.26
2019-04-06T20:10:12.726Z,13.21
2019-04-06T20:16:17.513Z,13.28
2019-04-06T20:22:22.933Z,13.22
2019-04-06T20:28:27.764Z,13.34
2019-04-06T20:34:32.345Z,13.43
2019-04-06T20:40:36.908Z,13.61
2019-04-06T20:46:41.477Z,13.58
2019-04-06T20:52:46.115Z,13.63
2019-04-06T20:58:51.208Z,13.59
2019-04-06T21:04:56.184Z,13.81
2019-04-06T21:11:01.189Z,13.69
2019-04-06T21:17:06.891Z,13.69
2019-04-06T21:23:11.736Z,13.79
2019-04-06T21:29:16.830Z,13.77
2019-04-06T21:35:21.559Z,13.82
2019-04-06T21:41:27.760Z,13.51
2019-04-06T21:47:32.500Z,13.46
2019-04-06T21:53:37.040Z,13.50
2019-04-06T21:59:41.820Z,13.57
2019-04-06T22:05:46.625Z,13.55
2019-04-06T22:11:51.553Z,13.51
2019-04-06T22:17:56.677Z,13.65
2019-04-06T22:24:01.321Z,13.79
2019-04-06T22:30:09.791Z,13.60
2019-04-06T22:36:14.350Z,13.57
2019-04-06T22:42:19.328Z,13.40
2019-04-06T22:48:24.235Z,13.09
2019-04-06T22:54:28.867Z,12.80
2019-04-06T23:00:37.612Z,12.86
2019-04-06T23:06:43.805Z,12.70
2019-04-06T23:12:48.693Z,12.60
2019-04-06T23:18:53.747Z,12.14
2019-04-06T23:24:58.998Z,11.99
2019-04-06T23:31:04.008Z,11.66
2019-04-06T23:37:08.699Z,11.50
2019-04-06T23:43:13.327Z,11.69
2019-04-06T23:49:17.925Z,11.49
2019-04-06T23:55:22.490Z,11.23
